createdAt,value
2022-08-17T00:02:26.250Z,22.20
2022-08-17T00:04:55.436Z,22.10
2022-08-17T00:07:23.026Z,22.20
2022-08-17T00:09:50.093Z,22.10
2022-08-17T00:12:43.626Z,22.10
2022-08-17T00:15:06.144Z,22.10
2022-08-17T00:17:37.284Z,22.10
2022-08-17T00:20:05.287Z,22.10
2022-08-17T00:22:36.334Z,22.10
2022-08-17T00:25:14.081Z,22.10
2022-08-17T00:27:41.341Z,22.00
2022-08-17T00:30:11.477Z,22.00
2022-08-17T00:33:23.387Z,21.90
2022-08-17T00:35:31.665Z,21.80
2022-08-17T00:37:58.445Z,21.70
2022-08-17T00:40:25.386Z,21.70
2022-08-17T00:42:53.407Z,21.70
2022-08-17T00:45:21.105Z,21.70
2022-08-17T00:47:49.468Z,21.70
2022-08-17T00:50:18.796Z,21.60
2022-08-17T00:52:55.149Z,21.60
2022-08-17T00:55:23.879Z,21.60
2022-08-17T00:57:55.520Z,21.60
2022-08-17T01:00:30.563Z,21.60
2022-08-17T01:03:19.543Z,21.50
2022-08-17T01:05:50.180Z,21.50
2022-08-17T01:08:19.687Z,21.50
2022-08-17T01:10:59.139Z,21.40
2022-08-17T01:13:38.187Z,21.50
2022-08-17T01:16:26.369Z,21.50
2022-08-17T01:19:00.808Z,21.50
2022-08-17T01:21:40.161Z,21.50
2022-08-17T01:24:08.113Z,21.40
2022-08-17T01:26:35.965Z,21.40
2022-08-17T01:29:05.652Z,21.40
2022-08-17T01:31:38.048Z,21.30
2022-08-17T01:34:09.762Z,21.30
2022-08-17T01:36:38.916Z,21.30
2022-08-17T01:39:09.083Z,21.30
2022-08-17T01:41:37.941Z,21.20
2022-08-17T01:44:07.790Z,21.20
2022-08-17T01:46:36.945Z,21.20
2022-08-17T01:49:09.554Z,21.20
2022-08-17T01:51:36.295Z,21.10
2022-08-17T01:54:08.451Z,21.00
2022-08-17T01:56:38.624Z,21.00
2022-08-17T01:59:05.540Z,21.00
2022-08-17T02:01:35.817Z,21.00
2022-08-17T02:04:04.434Z,20.90
2022-08-17T02:06:44.940Z,20.90
2022-08-17T02:09:16.711Z,20.90
2022-08-17T02:11:44.746Z,20.90
2022-08-17T02:14:13.409Z,20.90
2022-08-17T02:16:41.648Z,20.90
2022-08-17T02:19:12.068Z,20.90
2022-08-17T02:21:40.715Z,20.90
2022-08-17T02:24:10.858Z,20.90
2022-08-17T02:26:37.783Z,20.90
2022-08-17T02:29:04.920Z,20.80
2022-08-17T02:31:32.245Z,20.90
2022-08-17T02:34:03.935Z,20.80
2022-08-17T02:36:36.309Z,20.90
2022-08-17T02:39:06.391Z,20.80
2022-08-17T02:41:33.468Z,20.80
2022-08-17T02:44:00.672Z,20.80
2022-08-17T02:46:28.332Z,20.80
2022-08-17T02:48:55.278Z,20.80
2022-08-17T02:51:22.202Z,20.80
2022-08-17T02:53:49.147Z,20.80
2022-08-17T02:56:16.414Z,20.70
2022-08-17T02:58:43.235Z,20.70
2022-08-17T03:01:10.790Z,20.70
2022-08-17T03:03:38.160Z,20.70
2022-08-17T03:06:07.519Z,20.70
2022-08-17T03:08:34.732Z,20.70
2022-08-17T03:11:01.692Z,20.70
2022-08-17T03:13:28.667Z,20.70
2022-08-17T03:15:55.556Z,20.70
2022-08-17T03:18:24.881Z,20.70
2022-08-17T03:20:59.970Z,20.70
2022-08-17T03:23:29.677Z,20.80
2022-08-17T03:25:57.993Z,20.70
2022-08-17T03:28:25.024Z,20.80
2022-08-17T03:30:52.177Z,20.70
2022-08-17T03:33:19.858Z,20.80
2022-08-17T03:35:47.345Z,20.70
2022-08-17T03:38:15.959Z,20.70
2022-08-17T03:40:58.020Z,20.70
2022-08-17T03:43:28.369Z,20.70
2022-08-17T03:46:34.448Z,20.70
2022-08-17T03:49:19.549Z,20.70
2022-08-17T03:52:05.088Z,20.70
2022-08-17T03:54:50.366Z,20.70
2022-08-17T03:57:18.475Z,20.60
2022-08-17T03:59:45.446Z,20.60
2022-08-17T04:02:26.414Z,20.60
2022-08-17T04:04:54.161Z,20.50
2022-08-17T04:07:23.791Z,20.50
2022-08-17T04:09:51.146Z,20.50
2022-08-17T04:12:21.435Z,20.40
2022-08-17T04:14:53.562Z,20.40
2022-08-17T04:17:24.165Z,20.40
2022-08-17T04:19:51.373Z,20.30
2022-08-17T04:22:30.353Z,20.30
2022-08-17T04:24:59.181Z,20.30
2022-08-17T04:27:26.064Z,20.20
2022-08-17T04:29:55.549Z,20.30
2022-08-17T04:33:04.896Z,20.20
2022-08-17T04:35:11.128Z,20.20
2022-08-17T04:37:38.127Z,20.20
2022-08-17T04:40:27.234Z,20.20
2022-08-17T04:43:24.545Z,20.10
2022-08-17T04:45:56.179Z,20.10
2022-08-17T04:48:29.762Z,20.10
2022-08-17T04:51:03.600Z,20.10
2022-08-17T04:53:30.581Z,20.10
2022-08-17T04:55:59.023Z,20.10
2022-08-17T04:58:25.835Z,20.10
2022-08-17T05:00:52.750Z,20.20
2022-08-17T05:03:19.617Z,20.10
2022-08-17T05:05:49.820Z,20.10
2022-08-17T05:08:18.744Z,20.10
2022-08-17T05:10:46.930Z,20.10
2022-08-17T05:13:20.570Z,20.10
2022-08-17T05:15:49.722Z,20.10
2022-08-17T05:18:17.425Z,20.10
2022-08-17T05:20:45.138Z,20.10
2022-08-17T05:23:14.731Z,20.10
2022-08-17T05:25:48.405Z,20.10
2022-08-17T05:28:20.847Z,20.10
2022-08-17T05:30:51.492Z,20.10
2022-08-17T05:33:24.961Z,20.10
2022-08-17T05:35:54.448Z,20.10
2022-08-17T05:38:23.427Z,20.10
2022-08-17T05:40:50.769Z,20.20
2022-08-17T05:43:28.381Z,20.10
2022-08-17T05:46:03.973Z,20.20
2022-08-17T05:48:59.393Z,20.20
2022-08-17T05:51:35.103Z,20.10
2022-08-17T05:54:20.773Z,20.10
2022-08-17T05:56:59.745Z,20.10
2022-08-17T05:59:54.408Z,20.10
2022-08-17T06:02:34.585Z,20.10
2022-08-17T06:05:15.419Z,20.10
2022-08-17T06:08:12.155Z,20.20
2022-08-17T06:11:30.235Z,20.20
2022-08-17T06:14:02.957Z,20.30
2022-08-17T06:16:36.702Z,20.30
2022-08-17T06:19:13.300Z,20.30
2022-08-17T06:21:44.936Z,20.30
2022-08-17T06:24:23.887Z,20.40
2022-08-17T06:26:52.301Z,20.40
2022-08-17T06:29:39.270Z,20.40
2022-08-17T06:32:09.199Z,20.30
2022-08-17T06:34:40.720Z,20.30
2022-08-17T06:37:31.460Z,20.30
2022-08-17T06:40:20.341Z,20.30
2022-08-17T06:43:04.089Z,20.30
2022-08-17T06:45:49.249Z,20.30
2022-08-17T06:48:33.467Z,20.30
2022-08-17T06:51:27.786Z,20.40
2022-08-17T06:54:06.491Z,20.40
2022-08-17T06:56:53.354Z,20.50
2022-08-17T06:59:36.347Z,20.50
2022-08-17T07:02:20.102Z,20.50
2022-08-17T07:04:56.833Z,20.60
2022-08-17T07:07:42.005Z,20.70
2022-08-17T07:10:10.098Z,20.80
2022-08-17T07:12:40.472Z,20.80
2022-08-17T07:15:21.643Z,21.00
2022-08-17T07:17:48.949Z,21.10
2022-08-17T07:20:20.580Z,21.10
2022-08-17T07:23:06.777Z,21.20
2022-08-17T07:25:33.606Z,21.40
2022-08-17T07:28:06.022Z,21.50
2022-08-17T07:30:47.065Z,21.60
2022-08-17T07:33:29.558Z,21.70
2022-08-17T07:35:58.082Z,21.80
2022-08-17T07:38:30.406Z,21.90
2022-08-17T07:40:57.886Z,22.00
2022-08-17T07:43:31.890Z,22.10
2022-08-17T07:46:17.632Z,22.40
2022-08-17T07:48:51.573Z,22.60
2022-08-17T07:51:45.745Z,22.90
2022-08-17T07:54:15.704Z,23.10
2022-08-17T07:56:44.653Z,23.30
2022-08-17T07:59:15.768Z,23.40
2022-08-17T08:02:06.302Z,23.50
2022-08-17T08:05:00.117Z,23.60
2022-08-17T08:07:39.378Z,23.80
2022-08-17T08:10:06.229Z,24.10
2022-08-17T08:12:37.738Z,24.20
2022-08-17T08:15:17.681Z,24.40
2022-08-17T08:18:02.867Z,24.50
2022-08-17T08:20:52.440Z,24.70
2022-08-17T08:23:33.374Z,24.80
2022-08-17T08:26:06.243Z,24.80
2022-08-17T08:28:45.126Z,24.70
2022-08-17T08:31:41.636Z,24.60
2022-08-17T08:34:45.031Z,24.60
2022-08-17T08:37:34.554Z,24.50
2022-08-17T08:40:28.239Z,24.40
2022-08-17T08:43:27.095Z,24.30
2022-08-17T08:46:35.628Z,24.10
2022-08-17T08:49:45.551Z,23.90
2022-08-17T08:52:27.787Z,23.70
2022-08-17T08:55:04.358Z,23.50
2022-08-17T08:57:43.592Z,23.50
2022-08-17T09:00:15.162Z,23.40
2022-08-17T09:03:03.358Z,23.40
2022-08-17T09:05:49.054Z,23.30
2022-08-17T09:08:53.316Z,23.30
2022-08-17T09:12:02.339Z,23.30
2022-08-17T09:15:12.956Z,23.30
2022-08-17T09:21:05.697Z,23.20
2022-08-17T09:23:39.178Z,23.20
2022-08-17T09:26:22.062Z,23.20
2022-08-17T09:28:53.013Z,23.10
2022-08-17T09:31:33.241Z,23.10
2022-08-17T09:34:03.488Z,23.00
2022-08-17T09:36:52.632Z,23.00
2022-08-17T09:39:39.429Z,23.00
2022-08-17T09:42:16.708Z,23.10
2022-08-17T09:45:02.754Z,23.10
2022-08-17T09:47:38.205Z,23.30
2022-08-17T09:51:03.368Z,23.50
2022-08-17T09:53:09.463Z,23.60
2022-08-17T09:55:43.567Z,23.70
2022-08-17T09:58:35.340Z,23.80
2022-08-17T10:01:11.362Z,23.90
2022-08-17T10:04:49.936Z,24.00
2022-08-17T10:07:28.639Z,24.10
2022-08-17T10:10:14.283Z,24.20
2022-08-17T10:12:50.283Z,24.20
2022-08-17T10:15:54.289Z,24.30
2022-08-17T10:18:48.571Z,24.40
2022-08-17T10:21:35.418Z,24.40
2022-08-17T10:24:37.260Z,24.40
2022-08-17T10:27:14.576Z,24.40
2022-08-17T10:29:55.447Z,24.30
2022-08-17T10:32:47.720Z,24.30
2022-08-17T10:35:42.641Z,24.30
2022-08-17T10:38:39.709Z,24.20
2022-08-17T10:41:16.614Z,24.20
2022-08-17T10:44:38.758Z,24.20
2022-08-17T10:47:06.878Z,24.30
2022-08-17T10:49:47.518Z,24.20
2022-08-17T10:52:20.512Z,24.40
2022-08-17T10:54:58.064Z,24.40
2022-08-17T10:57:31.933Z,24.50
2022-08-17T11:00:02.963Z,24.50
2022-08-17T11:02:53.761Z,24.60
2022-08-17T11:05:43.702Z,24.70
2022-08-17T11:08:31.957Z,24.90
2022-08-17T11:11:14.705Z,25.00
2022-08-17T11:13:47.587Z,25.10
2022-08-17T11:16:40.755Z,25.20
2022-08-17T11:19:26.424Z,25.30
2022-08-17T11:22:33.670Z,25.40
2022-08-17T11:25:15.417Z,25.40
2022-08-17T11:27:43.999Z,25.20
2022-08-17T11:30:47.033Z,25.10
2022-08-17T11:33:33.972Z,25.00
2022-08-17T11:36:29.532Z,24.90
2022-08-17T11:39:26.331Z,24.80
2022-08-17T11:42:11.989Z,24.60
2022-08-17T11:45:07.818Z,24.60
2022-08-17T11:48:26.611Z,24.60
2022-08-17T11:51:17.170Z,24.60
2022-08-17T11:53:44.008Z,24.60
2022-08-17T11:56:29.055Z,24.60
2022-08-17T11:58:56.369Z,24.70
2022-08-17T12:01:23.154Z,24.70
2022-08-17T12:04:22.794Z,24.60
2022-08-17T12:06:56.888Z,24.60
2022-08-17T12:09:34.538Z,24.50
2022-08-17T12:12:12.384Z,24.40
2022-08-17T12:15:09.113Z,24.40
2022-08-17T12:17:51.924Z,24.30
2022-08-17T12:20:38.670Z,24.30
2022-08-17T12:23:44.119Z,24.40
2022-08-17T12:26:17.576Z,24.40
2022-08-17T12:28:47.877Z,24.40
2022-08-17T12:31:22.144Z,24.40
2022-08-17T12:33:49.999Z,24.30
2022-08-17T12:36:20.981Z,24.30
2022-08-17T12:39:13.030Z,24.40
2022-08-17T12:41:47.935Z,24.30
2022-08-17T12:44:21.863Z,24.40
2022-08-17T12:47:01.245Z,24.40
2022-08-17T12:49:32.824Z,24.40
2022-08-17T12:52:09.103Z,24.50
2022-08-17T12:54:48.160Z,24.50
2022-08-17T12:57:43.785Z,24.50
2022-08-17T13:00:30.557Z,24.50
2022-08-17T13:03:06.043Z,24.40
2022-08-17T13:05:37.235Z,24.40
2022-08-17T13:08:27.078Z,24.40
2022-08-17T13:10:56.560Z,24.50
2022-08-17T13:13:30.429Z,24.40
2022-08-17T13:16:03.632Z,24.40
2022-08-17T13:18:39.065Z,24.30
2022-08-17T13:21:23.928Z,24.20
2022-08-17T13:24:40.012Z,24.20
2022-08-17T13:27:11.829Z,24.10
2022-08-17T13:29:44.668Z,24.10
2022-08-17T13:32:13.581Z,24.10
2022-08-17T13:35:12.154Z,24.10
2022-08-17T13:37:36.710Z,24.10
2022-08-17T13:40:09.903Z,24.10
2022-08-17T13:42:50.425Z,24.10
2022-08-17T13:45:35.072Z,24.10
2022-08-17T13:48:11.856Z,24.20
2022-08-17T13:51:03.858Z,24.20
2022-08-17T13:53:51.142Z,24.20
2022-08-17T13:56:39.381Z,24.10
2022-08-17T13:59:13.252Z,24.10
2022-08-17T14:01:43.783Z,24.10
2022-08-17T14:04:20.327Z,24.10
2022-08-17T14:07:02.284Z,24.00
2022-08-17T14:09:37.050Z,24.00
2022-08-17T14:12:09.635Z,24.00
2022-08-17T14:14:36.985Z,24.00
2022-08-17T14:17:05.028Z,23.90
2022-08-17T14:19:33.640Z,23.90
2022-08-17T14:22:01.103Z,23.90
2022-08-17T14:24:31.089Z,23.80
2022-08-17T14:26:59.611Z,23.80
2022-08-17T14:29:28.405Z,23.80
2022-08-17T14:31:56.516Z,23.70
2022-08-17T14:34:24.645Z,23.60
2022-08-17T14:36:52.254Z,23.50
2022-08-17T14:39:20.175Z,23.40
2022-08-17T14:41:47.402Z,23.40
2022-08-17T14:44:14.602Z,23.30
2022-08-17T14:46:43.136Z,23.20
2022-08-17T14:49:11.657Z,23.20
2022-08-17T14:51:44.046Z,23.10
2022-08-17T14:54:32.724Z,23.10
2022-08-17T14:57:22.374Z,23.00
2022-08-17T14:59:52.295Z,23.00
2022-08-17T15:02:29.696Z,22.80
2022-08-17T15:05:04.468Z,22.60
2022-08-17T15:07:31.836Z,22.40
2022-08-17T15:10:02.809Z,22.00
2022-08-17T15:12:34.595Z,21.70
2022-08-17T15:15:06.312Z,21.40
2022-08-17T15:17:54.596Z,21.20
2022-08-17T15:20:27.919Z,20.70
2022-08-17T15:22:56.067Z,20.40
2022-08-17T15:25:25.582Z,20.20
2022-08-17T15:27:52.887Z,20.20
2022-08-17T15:30:20.110Z,20.20
2022-08-17T15:32:51.339Z,20.10
2022-08-17T15:35:27.330Z,20.10
2022-08-17T15:38:04.639Z,20.00
2022-08-17T15:40:37.586Z,20.00
2022-08-17T15:43:11.284Z,19.90
2022-08-17T15:45:38.829Z,19.80
2022-08-17T15:48:05.860Z,19.80
2022-08-17T15:50:33.028Z,19.80
2022-08-17T15:53:01.269Z,19.70
2022-08-17T15:55:30.060Z,19.70
2022-08-17T15:57:56.987Z,19.70
2022-08-17T16:00:24.106Z,19.80
2022-08-17T16:03:45.756Z,19.80
2022-08-17T16:05:38.089Z,19.70
2022-08-17T16:08:07.881Z,19.80
2022-08-17T16:10:35.993Z,19.80
2022-08-17T16:13:04.114Z,19.80
2022-08-17T16:15:31.968Z,19.60
2022-08-17T16:18:00.214Z,19.70
2022-08-17T16:20:27.267Z,19.50
2022-08-17T16:22:55.156Z,19.50
2022-08-17T16:25:38.330Z,19.50
2022-08-17T16:28:17.651Z,19.50
2022-08-17T16:30:44.642Z,19.50
2022-08-17T16:33:12.579Z,19.50
2022-08-17T16:35:39.835Z,19.50
2022-08-17T16:38:07.198Z,19.50
2022-08-17T16:40:36.295Z,19.50
2022-08-17T16:43:06.944Z,19.50
2022-08-17T16:45:36.695Z,19.50
2022-08-17T16:48:04.459Z,19.50
2022-08-17T16:50:32.330Z,19.40
2022-08-17T16:53:07.577Z,19.40
2022-08-17T16:55:37.659Z,19.40
2022-08-17T16:58:05.537Z,19.40
2022-08-17T17:00:36.147Z,19.40
2022-08-17T17:03:18.942Z,19.40
2022-08-17T17:06:22.771Z,19.50
2022-08-17T17:08:59.843Z,19.50
2022-08-17T17:11:34.136Z,19.50
2022-08-17T17:14:05.846Z,19.50
2022-08-17T17:16:59.916Z,19.50
2022-08-17T17:19:39.174Z,19.50
2022-08-17T17:22:45.577Z,19.50
2022-08-17T17:25:12.390Z,19.40
2022-08-17T17:27:49.750Z,19.40
2022-08-17T17:30:25.803Z,19.40
2022-08-17T17:33:18.463Z,19.40
2022-08-17T17:35:59.260Z,19.40
2022-08-17T17:38:42.975Z,19.40
2022-08-17T17:41:25.347Z,19.40
2022-08-17T17:44:05.027Z,19.40
2022-08-17T17:46:39.930Z,19.40
2022-08-17T17:49:06.926Z,19.40
2022-08-17T17:52:07.626Z,19.40
2022-08-17T17:54:51.371Z,19.40
2022-08-17T17:57:25.762Z,19.50
2022-08-17T18:00:12.479Z,19.50
2022-08-17T18:03:16.754Z,19.50
2022-08-17T18:06:03.386Z,19.40
2022-08-17T18:08:50.755Z,19.50
2022-08-17T18:11:24.974Z,19.50
2022-08-17T18:14:22.407Z,19.50
2022-08-17T18:16:55.574Z,19.50
2022-08-17T18:19:25.602Z,19.40
2022-08-17T18:22:01.415Z,19.40
2022-08-17T18:24:38.681Z,19.50
2022-08-17T18:27:34.554Z,19.50
2022-08-17T18:30:21.344Z,19.50
2022-08-17T18:32:48.431Z,19.50
2022-08-17T18:35:18.306Z,19.50
2022-08-17T18:37:47.064Z,19.40
2022-08-17T18:40:17.158Z,19.40
2022-08-17T18:42:46.411Z,19.40
2022-08-17T18:45:30.085Z,19.40
2022-08-17T18:47:57.545Z,19.40
2022-08-17T18:50:39.639Z,19.40
2022-08-17T18:53:33.308Z,19.40
2022-08-17T18:56:37.466Z,19.40
2022-08-17T18:59:22.174Z,19.40
2022-08-17T19:02:09.968Z,19.40
2022-08-17T19:05:04.665Z,19.40
2022-08-17T19:07:44.237Z,19.40
2022-08-17T19:10:46.139Z,19.40
2022-08-17T19:13:39.121Z,19.40
2022-08-17T19:16:16.051Z,19.40
2022-08-17T19:19:07.582Z,19.40
2022-08-17T19:21:38.229Z,19.40
2022-08-17T19:24:11.203Z,19.30
2022-08-17T19:26:53.637Z,19.30
2022-08-17T19:29:43.201Z,19.30
2022-08-17T19:32:12.647Z,19.30
2022-08-17T19:34:44.555Z,19.30
2022-08-17T19:37:32.633Z,19.30
2022-08-17T19:40:08.861Z,19.30
2022-08-17T19:43:07.974Z,19.30
2022-08-17T19:45:49.940Z,19.40
2022-08-17T19:48:35.591Z,19.40
2022-08-17T19:51:15.515Z,19.40
2022-08-17T19:54:06.943Z,19.40
2022-08-17T19:56:44.904Z,19.40
2022-08-17T19:59:49.504Z,19.40
2022-08-17T20:02:25.328Z,19.40
2022-08-17T20:04:55.664Z,19.40
2022-08-17T20:07:26.358Z,19.40
2022-08-17T20:10:02.515Z,19.40
2022-08-17T20:12:38.273Z,19.40
2022-08-17T20:15:20.317Z,19.40
2022-08-17T20:17:48.262Z,19.40
2022-08-17T20:20:26.851Z,19.40
2022-08-17T20:22:59.657Z,19.30
2022-08-17T20:25:57.287Z,19.30
2022-08-17T20:28:31.162Z,19.40
2022-08-17T20:30:58.642Z,19.40
2022-08-17T20:33:36.754Z,19.40
2022-08-17T20:36:22.715Z,19.40
2022-08-17T20:38:54.840Z,19.40
2022-08-17T20:41:24.696Z,19.40
2022-08-17T20:44:11.786Z,19.40
2022-08-17T20:46:38.740Z,19.40
2022-08-17T20:49:08.647Z,19.40
2022-08-17T20:52:01.002Z,19.40
2022-08-17T20:54:48.470Z,19.30
2022-08-17T20:57:36.635Z,19.40
2022-08-17T21:00:17.501Z,19.30
2022-08-17T21:02:49.542Z,19.30
2022-08-17T21:05:35.939Z,19.30
2022-08-17T21:08:15.419Z,19.30
2022-08-17T21:10:46.904Z,19.40
2022-08-17T21:13:15.593Z,19.30
2022-08-17T21:15:48.575Z,19.30
2022-08-17T21:18:18.486Z,19.30
2022-08-17T21:21:27.459Z,19.30
2022-08-17T21:24:19.393Z,19.30
2022-08-17T21:27:01.514Z,19.20
2022-08-17T21:29:33.780Z,19.20
2022-08-17T21:32:04.351Z,19.20
2022-08-17T21:34:37.783Z,19.20
2022-08-17T21:37:34.929Z,19.20
2022-08-17T21:40:24.873Z,19.20
2022-08-17T21:42:55.702Z,19.20
2022-08-17T21:45:40.384Z,19.20
2022-08-17T21:48:21.173Z,19.20
2022-08-17T21:51:12.024Z,19.20
2022-08-17T21:53:52.719Z,19.20
2022-08-17T21:56:29.489Z,19.20
2022-08-17T21:59:03.050Z,19.20
2022-08-17T22:01:34.368Z,19.20
2022-08-17T22:04:11.226Z,19.20
2022-08-17T22:06:40.977Z,19.10
2022-08-17T22:09:11.303Z,19.10
2022-08-17T22:11:54.793Z,19.10
2022-08-17T22:14:26.681Z,19.10
2022-08-17T22:17:25.909Z,19.00
2022-08-17T22:20:25.092Z,19.00
2022-08-17T22:23:13.433Z,19.00
2022-08-17T22:25:57.029Z,19.10
2022-08-17T22:28:45.531Z,19.00
2022-08-17T22:31:16.595Z,19.00
2022-08-17T22:33:52.377Z,19.00
2022-08-17T22:36:29.267Z,19.00
2022-08-17T22:39:16.433Z,19.00
2022-08-17T22:42:00.853Z,19.00
2022-08-17T22:44:35.676Z,19.00
2022-08-17T22:47:23.211Z,19.00
2022-08-17T22:50:02.556Z,19.00
2022-08-17T22:52:32.088Z,19.00
2022-08-17T22:55:32.350Z,19.10
2022-08-17T22:58:18.824Z,19.00
2022-08-17T23:00:48.761Z,19.00
2022-08-17T23:06:10.537Z,19.00
2022-08-17T23:08:54.687Z,19.00
2022-08-17T23:11:39.446Z,19.00
2022-08-17T23:14:14.494Z,19.00
2022-08-17T23:16:44.686Z,19.00
2022-08-17T23:19:18.582Z,19.00
2022-08-17T23:21:46.006Z,19.00
2022-08-17T23:24:27.943Z,19.00
2022-08-17T23:26:57.069Z,18.90
2022-08-17T23:29:25.109Z,18.90
2022-08-17T23:31:52.523Z,19.00
2022-08-17T23:34:19.707Z,19.00
2022-08-17T23:36:51.280Z,19.00
2022-08-17T23:39:24.688Z,19.00
2022-08-17T23:41:58.022Z,18.90
2022-08-17T23:44:25.218Z,18.90
2022-08-17T23:46:53.228Z,18.90
2022-08-17T23:49:20.551Z,19.00
2022-08-17T23:51:48.783Z,18.90
2022-08-17T23:54:19.341Z,18.90
2022-08-17T23:56:49.436Z,19.00
2022-08-17T23:59:19.275Z,19.00
